CheckWX is a tool to help pilots better visualize weather data.  It is not intended as a substitute for an official pre-flight weather briefing.

04:39:51 UTC

LLHA TAF
Haifa International Airport
Haifa, Israel
TAF AMD LLHA 230334Z 2304/2324 VRB03KT 9000 SCT017 TEMPO 2304/2307 5000 BR BKN014 BECMG 2307/2309 30008KT 9999 FEW025 BECMG 2315/2317 VRB04KT SCT015 TX20/2312Z TN14/2304Z

Mar-23@
04:00 UTC

Mar-23 @ 04:00 UTC

Mar-23@
07:00 UTC

Mar-23 @ 07:00 UTC

TAF AMD LLHA 230334Z 2304/2324 VRB03KT 9000 SCT017
Wind
  • Variable at 3 KTS
Cloud Levels
  • Scattered at 1,700' AGL

Mar-23@
04:00 UTC

Mar-23 @ 04:00 UTC

Mar-23@
07:00 UTC

Mar-23 @ 07:00 UTC

TEMPO 2304/2307 5000 BR BKN014

Temporary

Temporary Changes expected for less than half the time period

Conditions
Mist
Cloud Levels
  • Broken at 1,400' AGL

Mar-23@
07:00 UTC

Mar-23 @ 07:00 UTC

Mar-23@
15:00 UTC

Mar-23 @ 15:00 UTC

BECMG 2307/2309 30008KT 9999 FEW025

Becoming

Becoming Conditions expected by Sat, Mar 23, 2019 @ 09:00 UTC

Wind
  • 300° at 8 KTS
Cloud Levels
  • Few at 2,500' AGL

Mar-23@
15:00 UTC

Mar-23 @ 15:00 UTC

Mar-24@
00:00 UTC

Mar-24 @ 00:00 UTC

BECMG 2315/2317 VRB04KT SCT015 TX20/2312Z TN14/2304Z

Becoming

Becoming Conditions expected by Sat, Mar 23, 2019 @ 17:00 UTC

Wind
  • Variable at 4 KTS
Cloud Levels
  • Scattered at 1,500' AGL